sensor_id;sensor_type;location;lat;lon;timestamp;pressure;altitude;pressure_sealevel;temperature;humidity
9423;BME280;65863;49.506;10.400;2023-02-07T00:02:37;100119.19;;;-2.81;82.51
9423;BME280;65863;49.506;10.400;2023-02-07T00:05:21;100121.09;;;-2.78;82.65
9423;BME280;65863;49.506;10.400;2023-02-07T00:08:06;100115.63;;;-2.78;82.70
9423;BME280;65863;49.506;10.400;2023-02-07T00:10:50;100102.16;;;-3.06;82.55
9423;BME280;65863;49.506;10.400;2023-02-07T00:13:35;100096.13;;;-2.90;82.47
9423;BME280;65863;49.506;10.400;2023-02-07T00:16:20;100104.31;;;-2.87;82.31
9423;BME280;65863;49.506;10.400;2023-02-07T00:19:04;100097.00;;;-3.01;82.51
9423;BME280;65863;49.506;10.400;2023-02-07T00:21:48;100097.41;;;-3.02;82.32
9423;BME280;65863;49.506;10.400;2023-02-07T00:24:32;100095.94;;;-3.11;82.29
9423;BME280;65863;49.506;10.400;2023-02-07T00:27:16;100116.66;;;-3.02;82.03
9423;BME280;65863;49.506;10.400;2023-02-07T00:30:00;100062.50;;;-3.40;82.04
9423;BME280;65863;49.506;10.400;2023-02-07T00:32:44;100121.78;;;-3.04;82.18
9423;BME280;65863;49.506;10.400;2023-02-07T00:35:28;100111.22;;;-3.06;82.24
9423;BME280;65863;49.506;10.400;2023-02-07T00:38:12;100065.72;;;-3.49;81.86
9423;BME280;65863;49.506;10.400;2023-02-07T00:40:56;100114.28;;;-3.42;81.67
9423;BME280;65863;49.506;10.400;2023-02-07T00:43:42;100119.00;;;-3.42;81.97
9423;BME280;65863;49.506;10.400;2023-02-07T00:46:26;100123.06;;;-3.58;81.96
9423;BME280;65863;49.506;10.400;2023-02-07T00:49:11;100111.94;;;-3.43;82.01
9423;BME280;65863;49.506;10.400;2023-02-07T00:51:55;100066.72;;;-3.73;82.36
9423;BME280;65863;49.506;10.400;2023-02-07T00:54:39;100082.69;;;-3.61;82.12
9423;BME280;65863;49.506;10.400;2023-02-07T00:57:25;100117.91;;;-3.49;82.06
9423;BME280;65863;49.506;10.400;2023-02-07T01:00:10;100092.91;;;-3.65;82.39
9423;BME280;65863;49.506;10.400;2023-02-07T01:02:54;100086.94;;;-3.53;82.18
9423;BME280;65863;49.506;10.400;2023-02-07T01:05:38;100114.63;;;-3.36;82.55
9423;BME280;65863;49.506;10.400;2023-02-07T01:08:22;100116.97;;;-3.35;82.47
9423;BME280;65863;49.506;10.400;2023-02-07T01:11:09;100042.19;;;-3.95;82.50
9423;BME280;65863;49.506;10.400;2023-02-07T01:13:58;100140.09;;;-3.32;82.48
9423;BME280;65863;49.506;10.400;2023-02-07T01:16:43;100121.00;;;-3.47;82.38
9423;BME280;65863;49.506;10.400;2023-02-07T01:19:28;100117.56;;;-3.54;82.23
9423;BME280;65863;49.506;10.400;2023-02-07T01:22:14;100117.75;;;-3.83;82.16
9423;BME280;65863;49.506;10.400;2023-02-07T01:24:58;100127.75;;;-3.55;82.54
9423;BME280;65863;49.506;10.400;2023-02-07T01:27:42;100007.75;;;-4.56;82.35
9423;BME280;65863;49.506;10.400;2023-02-07T01:30:27;100112.25;;;-3.79;82.32
9423;BME280;65863;49.506;10.400;2023-02-07T01:33:11;100011.94;;;-4.40;82.56
9423;BME280;65863;49.506;10.400;2023-02-07T01:35:55;100127.50;;;-3.71;82.35
9423;BME280;65863;49.506;10.400;2023-02-07T01:38:39;100114.13;;;-3.69;82.59
9423;BME280;65863;49.506;10.400;2023-02-07T01:41:25;100123.13;;;-3.65;82.64
9423;BME280;65863;49.506;10.400;2023-02-07T01:47:08;100107.59;;;-3.83;82.65
9423;BME280;65863;49.506;10.400;2023-02-07T01:49:55;100105.78;;;-4.07;82.71
9423;BME280;65863;49.506;10.400;2023-02-07T01:52:41;100122.09;;;-3.86;82.94
9423;BME280;65863;49.506;10.400;2023-02-07T01:55:29;100114.25;;;-3.84;82.97
9423;BME280;65863;49.506;10.400;2023-02-07T01:58:15;100093.22;;;-4.05;82.97
9423;BME280;65863;49.506;10.400;2023-02-07T02:01:03;100107.66;;;-3.97;83.39
9423;BME280;65863;49.506;10.400;2023-02-07T02:03:50;100114.72;;;-3.92;83.38
9423;BME280;65863;49.506;10.400;2023-02-07T02:06:37;100032.38;;;-4.45;83.18
9423;BME280;65863;49.506;10.400;2023-02-07T02:09:23;100105.25;;;-3.88;83.26
9423;BME280;65863;49.506;10.400;2023-02-07T02:12:41;100099.38;;;-3.90;83.48
9423;BME280;65863;49.506;10.400;2023-02-07T02:15:33;100089.66;;;-3.98;83.25
9423;BME280;65863;49.506;10.400;2023-02-07T02:18:41;100095.16;;;-4.02;83.42
9423;BME280;65863;49.506;10.400;2023-02-07T02:34:20;100094.53;;;-4.27;83.70
9423;BME280;65863;49.506;10.400;2023-02-07T02:37:33;100080.59;;;-4.58;83.34
9423;BME280;65863;49.506;10.400;2023-02-07T02:40:28;100102.44;;;-4.40;83.77
9423;BME280;65863;49.506;10.400;2023-02-07T02:43:45;100125.13;;;-4.29;83.65
9423;BME280;65863;49.506;10.400;2023-02-07T02:46:33;100090.84;;;-4.66;83.93
9423;BME280;65863;49.506;10.400;2023-02-07T02:49:19;100115.03;;;-4.54;83.91
9423;BME280;65863;49.506;10.400;2023-02-07T02:52:05;100092.78;;;-4.63;83.69
9423;BME280;65863;49.506;10.400;2023-02-07T02:54:48;100086.53;;;-4.67;84.12
9423;BME280;65863;49.506;10.400;2023-02-07T02:57:57;100017.81;;;-5.09;84.21
9423;BME280;65863;49.506;10.400;2023-02-07T03:03:53;100088.78;;;-4.47;84.37
9423;BME280;65863;49.506;10.400;2023-02-07T03:07:14;100088.41;;;-4.57;84.58
9423;BME280;65863;49.506;10.400;2023-02-07T03:13:35;99986.19;;;-5.35;84.53
9423;BME280;65863;49.506;10.400;2023-02-07T03:16:33;100085.38;;;-4.73;84.71
9423;BME280;65863;49.506;10.400;2023-02-07T03:19:26;100072.84;;;-4.78;84.77
9423;BME280;65863;49.506;10.400;2023-02-07T03:22:13;100088.09;;;-4.66;84.90
9423;BME280;65863;49.506;10.400;2023-02-07T03:25:00;99976.84;;;-5.41;84.99
9423;BME280;65863;49.506;10.400;2023-02-07T03:27:49;100096.31;;;-4.66;85.03
9423;BME280;65863;49.506;10.400;2023-02-07T03:30:36;100092.47;;;-4.87;84.85
9423;BME280;65863;49.506;10.400;2023-02-07T03:33:22;100095.63;;;-4.92;85.04
9423;BME280;65863;49.506;10.400;2023-02-07T03:36:31;100115.97;;;-4.86;85.15
9423;BME280;65863;49.506;10.400;2023-02-07T03:39:16;100093.25;;;-4.82;85.15
9423;BME280;65863;49.506;10.400;2023-02-07T03:42:10;100058.53;;;-5.14;85.38
9423;BME280;65863;49.506;10.400;2023-02-07T03:44:59;100086.25;;;-5.05;85.01
9423;BME280;65863;49.506;10.400;2023-02-07T03:47:45;100074.19;;;-5.19;84.96
9423;BME280;65863;49.506;10.400;2023-02-07T03:50:29;100082.38;;;-5.11;84.98
9423;BME280;65863;49.506;10.400;2023-02-07T03:53:13;99959.78;;;-6.14;85.17
9423;BME280;65863;49.506;10.400;2023-02-07T03:55:57;100100.44;;;-5.36;85.37
9423;BME280;65863;49.506;10.400;2023-02-07T03:58:40;100114.50;;;-5.33;84.98
9423;BME280;65863;49.506;10.400;2023-02-07T04:01:25;100031.66;;;-5.92;85.54
9423;BME280;65863;49.506;10.400;2023-02-07T04:04:10;100105.09;;;-5.36;85.71
9423;BME280;65863;49.506;10.400;2023-02-07T04:06:54;100058.22;;;-5.60;85.57
9423;BME280;65863;49.506;10.400;2023-02-07T04:09:38;100117.66;;;-5.31;85.86
9423;BME280;65863;49.506;10.400;2023-02-07T04:12:22;100112.16;;;-5.42;85.87
9423;BME280;65863;49.506;10.400;2023-02-07T04:15:07;100020.75;;;-6.10;85.83
9423;BME280;65863;49.506;10.400;2023-02-07T04:17:51;100117.28;;;-5.44;86.32
9423;BME280;65863;49.506;10.400;2023-02-07T04:20:35;100095.75;;;-5.57;86.01
9423;BME280;65863;49.506;10.400;2023-02-07T04:23:19;99930.06;;;-6.95;86.08
9423;BME280;65863;49.506;10.400;2023-02-07T04:26:03;99984.38;;;-6.61;85.88
9423;BME280;65863;49.506;10.400;2023-02-07T04:28:48;100057.09;;;-6.16;86.07
9423;BME280;65863;49.506;10.400;2023-02-07T04:31:32;100035.56;;;-6.58;86.07
9423;BME280;65863;49.506;10.400;2023-02-07T04:34:16;100080.91;;;-6.20;86.26
9423;BME280;65863;49.506;10.400;2023-02-07T04:37:00;100100.06;;;-6.13;86.16
9423;BME280;65863;49.506;10.400;2023-02-07T04:39:45;100087.16;;;-6.24;86.42
9423;BME280;65863;49.506;10.400;2023-02-07T04:42:29;100087.13;;;-6.34;86.44
9423;BME280;65863;49.506;10.400;2023-02-07T04:45:13;100001.13;;;-6.87;86.10
9423;BME280;65863;49.506;10.400;2023-02-07T04:47:57;100065.25;;;-6.38;86.81
9423;BME280;65863;49.506;10.400;2023-02-07T04:50:42;100039.03;;;-6.71;86.65
9423;BME280;65863;49.506;10.400;2023-02-07T04:53:26;100039.81;;;-6.64;86.77
9423;BME280;65863;49.506;10.400;2023-02-07T04:56:10;100062.09;;;-6.44;86.51
9423;BME280;65863;49.506;10.400;2023-02-07T04:58:54;100075.44;;;-6.28;86.83
9423;BME280;65863;49.506;10.400;2023-02-07T05:01:38;100072.72;;;-6.20;86.95
9423;BME280;65863;49.506;10.400;2023-02-07T05:04:23;99973.34;;;-7.07;86.75
9423;BME280;65863;49.506;10.400;2023-02-07T05:07:07;100108.25;;;-6.20;86.89
9423;BME280;65863;49.506;10.400;2023-02-07T05:09:51;100087.09;;;-6.45;87.09
9423;BME280;65863;49.506;10.400;2023-02-07T05:12:36;100110.59;;;-6.33;87.59
9423;BME280;65863;49.506;10.400;2023-02-07T05:15:20;100100.00;;;-6.38;87.43
9423;BME280;65863;49.506;10.400;2023-02-07T05:18:04;100101.59;;;-6.19;87.34
9423;BME280;65863;49.506;10.400;2023-02-07T05:20:52;99998.41;;;-6.80;87.70
9423;BME280;65863;49.506;10.400;2023-02-07T05:23:36;100108.28;;;-6.13;87.65
9423;BME280;65863;49.506;10.400;2023-02-07T05:26:20;100082.84;;;-6.28;87.74
9423;BME280;65863;49.506;10.400;2023-02-07T05:29:04;100136.00;;;-6.15;87.58
9423;BME280;65863;49.506;10.400;2023-02-07T05:31:48;100032.34;;;-6.78;87.86
9423;BME280;65863;49.506;10.400;2023-02-07T05:34:51;100141.06;;;-6.17;87.91
9423;BME280;65863;49.506;10.400;2023-02-07T05:37:35;100086.72;;;-6.36;87.84
9423;BME280;65863;49.506;10.400;2023-02-07T05:40:19;99992.50;;;-6.97;88.24
9423;BME280;65863;49.506;10.400;2023-02-07T05:43:04;100101.59;;;-6.23;88.36
9423;BME280;65863;49.506;10.400;2023-02-07T05:45:48;100106.28;;;-6.27;88.63
9423;BME280;65863;49.506;10.400;2023-02-07T05:48:32;100026.91;;;-6.81;88.40
9423;BME280;65863;49.506;10.400;2023-02-07T05:51:16;100096.47;;;-6.43;88.16
9423;BME280;65863;49.506;10.400;2023-02-07T05:54:00;100138.31;;;-6.35;88.64
9423;BME280;65863;49.506;10.400;2023-02-07T05:56:44;100126.56;;;-6.46;88.80
9423;BME280;65863;49.506;10.400;2023-02-07T05:59:29;100143.69;;;-6.60;88.30
9423;BME280;65863;49.506;10.400;2023-02-07T06:02:13;100067.00;;;-7.03;88.52
9423;BME280;65863;49.506;10.400;2023-02-07T06:04:57;100022.03;;;-7.31;88.89
9423;BME280;65863;49.506;10.400;2023-02-07T06:07:41;100123.72;;;-6.68;89.07
9423;BME280;65863;49.506;10.400;2023-02-07T06:10:26;100137.84;;;-6.48;88.78
9423;BME280;65863;49.506;10.400;2023-02-07T06:13:10;100151.22;;;-6.25;89.38
9423;BME280;65863;49.506;10.400;2023-02-07T06:15:54;100082.72;;;-6.68;89.36
9423;BME280;65863;49.506;10.400;2023-02-07T06:18:38;100138.72;;;-6.26;89.30
9423;BME280;65863;49.506;10.400;2023-02-07T06:21:22;100050.34;;;-6.73;88.97
9423;BME280;65863;49.506;10.400;2023-02-07T06:24:06;100067.13;;;-6.71;89.39
9423;BME280;65863;49.506;10.400;2023-02-07T06:26:50;100146.53;;;-6.28;89.53
9423;BME280;65863;49.506;10.400;2023-02-07T06:29:34;100029.56;;;-7.03;89.54
9423;BME280;65863;49.506;10.400;2023-02-07T06:32:18;100093.31;;;-6.55;89.92
9423;BME280;65863;49.506;10.400;2023-02-07T06:35:04;100064.34;;;-6.85;89.42
9423;BME280;65863;49.506;10.400;2023-02-07T06:37:48;100177.00;;;-6.26;89.68
9423;BME280;65863;49.506;10.400;2023-02-07T06:40:32;100162.84;;;-6.42;89.65
9423;BME280;65863;49.506;10.400;2023-02-07T06:43:16;100169.88;;;-6.52;89.61
9423;BME280;65863;49.506;10.400;2023-02-07T06:46:00;100201.22;;;-6.28;89.63
9423;BME280;65863;49.506;10.400;2023-02-07T06:48:44;100101.78;;;-6.89;89.32
9423;BME280;65863;49.506;10.400;2023-02-07T06:51:28;100192.16;;;-6.46;89.97
9423;BME280;65863;49.506;10.400;2023-02-07T06:54:13;100225.03;;;-6.25;90.00
9423;BME280;65863;49.506;10.400;2023-02-07T06:56:57;100075.19;;;-7.07;89.91
9423;BME280;65863;49.506;10.400;2023-02-07T06:59:41;100209.81;;;-6.18;89.94
9423;BME280;65863;49.506;10.400;2023-02-07T07:02:26;100183.63;;;-6.30;90.02
9423;BME280;65863;49.506;10.400;2023-02-07T07:05:10;100218.81;;;-6.18;90.10
9423;BME280;65863;49.506;10.400;2023-02-07T07:07:54;100178.41;;;-6.61;89.72
9423;BME280;65863;49.506;10.400;2023-02-07T07:10:39;100207.41;;;-6.38;90.18
9423;BME280;65863;49.506;10.400;2023-02-07T07:13:23;100251.25;;;-6.16;90.17
9423;BME280;65863;49.506;10.400;2023-02-07T07:16:07;100005.56;;;-7.49;90.00
9423;BME280;65863;49.506;10.400;2023-02-07T07:18:51;100096.34;;;-6.82;90.13
9423;BME280;65863;49.506;10.400;2023-02-07T07:21:36;100179.34;;;-6.28;90.14
9423;BME280;65863;49.506;10.400;2023-02-07T07:24:20;100201.28;;;-6.02;90.24
9423;BME280;65863;49.506;10.400;2023-02-07T07:27:04;100090.53;;;-6.66;90.21
9423;BME280;65863;49.506;10.400;2023-02-07T07:29:48;100167.63;;;-6.21;90.29
9423;BME280;65863;49.506;10.400;2023-02-07T07:32:32;100126.13;;;-6.55;90.04
9423;BME280;65863;49.506;10.400;2023-02-07T07:35:17;100205.19;;;-5.93;90.43
9423;BME280;65863;49.506;10.400;2023-02-07T07:38:01;100216.16;;;-5.82;90.18
9423;BME280;65863;49.506;10.400;2023-02-07T07:40:45;100125.38;;;-6.49;90.57
9423;BME280;65863;49.506;10.400;2023-02-07T07:43:29;100146.50;;;-6.35;89.98
9423;BME280;65863;49.506;10.400;2023-02-07T07:46:13;100243.16;;;-5.66;90.19
9423;BME280;65863;49.506;10.400;2023-02-07T07:48:58;100143.00;;;-6.25;90.45
9423;BME280;65863;49.506;10.400;2023-02-07T07:51:42;100175.50;;;-5.80;90.39
9423;BME280;65863;49.506;10.400;2023-02-07T07:54:26;100163.78;;;-5.80;90.26
9423;BME280;65863;49.506;10.400;2023-02-07T07:57:10;100084.44;;;-6.24;90.33
9423;BME280;65863;49.506;10.400;2023-02-07T07:59:54;100180.22;;;-5.37;90.38
9423;BME280;65863;49.506;10.400;2023-02-07T08:02:40;100062.91;;;-5.93;90.02
9423;BME280;65863;49.506;10.400;2023-02-07T08:05:24;100061.38;;;-5.94;90.10
9423;BME280;65863;49.506;10.400;2023-02-07T08:08:08;100184.09;;;-5.02;90.06
9423;BME280;65863;49.506;10.400;2023-02-07T08:10:53;100215.69;;;-4.47;90.15
9423;BME280;65863;49.506;10.400;2023-02-07T08:13:37;100213.59;;;-4.10;90.23
9423;BME280;65863;49.506;10.400;2023-02-07T08:16:21;100235.53;;;-4.07;90.19
9423;BME280;65863;49.506;10.400;2023-02-07T08:19:05;100207.78;;;-4.27;89.86
9423;BME280;65863;49.506;10.400;2023-02-07T08:21:50;100243.13;;;-3.62;89.41
9423;BME280;65863;49.506;10.400;2023-02-07T08:24:34;100222.56;;;-3.39;89.12
9423;BME280;65863;49.506;10.400;2023-02-07T08:27:18;100225.06;;;-3.03;88.78
9423;BME280;65863;49.506;10.400;2023-02-07T08:30:04;100142.63;;;-3.49;88.26
9423;BME280;65863;49.506;10.400;2023-02-07T08:32:48;100056.53;;;-3.76;87.37
9423;BME280;65863;49.506;10.400;2023-02-07T08:35:35;100184.78;;;-2.83;86.74
9423;BME280;65863;49.506;10.400;2023-02-07T08:38:19;100197.59;;;-2.69;85.95
9423;BME280;65863;49.506;10.400;2023-02-07T08:41:04;100188.00;;;-2.53;85.11
9423;BME280;65863;49.506;10.400;2023-02-07T08:43:48;100210.19;;;-2.33;84.22
9423;BME280;65863;49.506;10.400;2023-02-07T08:46:32;99998.72;;;-3.58;83.30
9423;BME280;65863;49.506;10.400;2023-02-07T08:49:16;100127.81;;;-2.82;82.37
9423;BME280;65863;49.506;10.400;2023-02-07T08:52:00;100199.44;;;-2.24;81.99
9423;BME280;65863;49.506;10.400;2023-02-07T08:54:44;100212.03;;;-2.23;80.84
9423;BME280;65863;49.506;10.400;2023-02-07T08:57:28;100214.78;;;-1.92;80.19
9423;BME280;65863;49.506;10.400;2023-02-07T09:00:13;100169.53;;;-1.91;79.20
9423;BME280;65863;49.506;10.400;2023-02-07T09:02:57;100165.28;;;-1.68;79.03
9423;BME280;65863;49.506;10.400;2023-02-07T09:05:42;100163.38;;;-1.48;77.84
9423;BME280;65863;49.506;10.400;2023-02-07T09:08:26;100197.47;;;-1.14;77.17
9423;BME280;65863;49.506;10.400;2023-02-07T09:11:09;100172.25;;;-1.13;76.10
9423;BME280;65863;49.506;10.400;2023-02-07T09:13:53;100041.91;;;-1.81;75.53
9423;BME280;65863;49.506;10.400;2023-02-07T09:16:37;100158.97;;;-0.98;74.46
9423;BME280;65863;49.506;10.400;2023-02-07T09:19:21;100166.59;;;-1.06;73.95
9423;BME280;65863;49.506;10.400;2023-02-07T09:22:05;100160.75;;;-1.08;72.68
9423;BME280;65863;49.506;10.400;2023-02-07T09:24:49;100139.63;;;-0.94;71.72
9423;BME280;65863;49.506;10.400;2023-02-07T09:27:33;100174.56;;;-0.88;70.11
9423;BME280;65863;49.506;10.400;2023-02-07T09:30:17;100090.72;;;-1.34;68.91
9423;BME280;65863;49.506;10.400;2023-02-07T09:33:01;100186.84;;;-0.28;68.41
9423;BME280;65863;49.506;10.400;2023-02-07T09:35:46;100138.25;;;-0.26;67.53
9423;BME280;65863;49.506;10.400;2023-02-07T09:38:30;100166.53;;;-0.02;66.71
9423;BME280;65863;49.506;10.400;2023-02-07T09:41:29;100069.63;;;-0.80;65.66
9423;BME280;65863;49.506;10.400;2023-02-07T09:47:30;100178.53;;;-0.68;63.09
9423;BME280;65863;49.506;10.400;2023-02-07T09:50:22;100111.13;;;-1.08;63.14
9423;BME280;65863;49.506;10.400;2023-02-07T09:53:18;100175.63;;;-0.61;62.75
9423;BME280;65863;49.506;10.400;2023-02-07T09:56:07;100100.84;;;-1.07;62.07
9423;BME280;65863;49.506;10.400;2023-02-07T10:03:12;100181.28;;;-0.48;61.14
9423;BME280;65863;49.506;10.400;2023-02-07T10:06:02;100199.91;;;-0.53;60.61
9423;BME280;65863;49.506;10.400;2023-02-07T10:08:50;100086.44;;;-0.75;61.02
9423;BME280;65863;49.506;10.400;2023-02-07T10:17:54;100090.06;;;-0.21;60.17
9423;BME280;65863;49.506;10.400;2023-02-07T10:21:18;100118.84;;;-0.22;59.65
9423;BME280;65863;49.506;10.400;2023-02-07T10:27:15;100203.47;;;1.07;59.33
9423;BME280;65863;49.506;10.400;2023-02-07T10:33:24;100188.19;;;0.53;56.75
9423;BME280;65863;49.506;10.400;2023-02-07T10:36:13;100119.00;;;0.40;56.83
9423;BME280;65863;49.506;10.400;2023-02-07T10:39:32;100099.47;;;0.31;56.55
9423;BME280;65863;49.506;10.400;2023-02-07T10:42:19;100176.22;;;1.22;56.34
9423;BME280;65863;49.506;10.400;2023-02-07T10:45:04;100178.41;;;1.86;55.99
9423;BME280;65863;49.506;10.400;2023-02-07T10:47:48;100180.19;;;1.50;54.04
9423;BME280;65863;49.506;10.400;2023-02-07T10:50:32;100157.53;;;1.26;53.89
9423;BME280;65863;49.506;10.400;2023-02-07T10:53:40;100173.97;;;1.17;53.55
9423;BME280;65863;49.506;10.400;2023-02-07T10:56:26;100160.84;;;1.05;53.63
9423;BME280;65863;49.506;10.400;2023-02-07T11:08:18;100175.41;;;0.92;53.75
9423;BME280;65863;49.506;10.400;2023-02-07T11:14:15;100145.69;;;1.38;53.03
9423;BME280;65863;49.506;10.400;2023-02-07T11:17:00;100160.56;;;0.53;51.68
9423;BME280;65863;49.506;10.400;2023-02-07T11:19:44;100114.94;;;0.45;53.03
9423;BME280;65863;49.506;10.400;2023-02-07T11:22:29;100067.88;;;0.48;53.30
9423;BME280;65863;49.506;10.400;2023-02-07T11:25:13;100164.16;;;0.99;52.86
9423;BME280;65863;49.506;10.400;2023-02-07T11:27:57;100166.78;;;1.19;53.24
9423;BME280;65863;49.506;10.400;2023-02-07T11:30:42;100135.81;;;0.95;52.56
9423;BME280;65863;49.506;10.400;2023-02-07T11:33:27;100154.75;;;1.81;53.29
9423;BME280;65863;49.506;10.400;2023-02-07T11:39:15;100079.94;;;1.43;52.44
9423;BME280;65863;49.506;10.400;2023-02-07T11:42:01;100129.69;;;1.17;52.78
9423;BME280;65863;49.506;10.400;2023-02-07T11:44:46;99985.06;;;0.28;53.14
9423;BME280;65863;49.506;10.400;2023-02-07T11:47:33;100128.31;;;1.93;54.13
9423;BME280;65863;49.506;10.400;2023-02-07T11:50:21;100110.66;;;2.38;53.82
9423;BME280;65863;49.506;10.400;2023-02-07T11:53:18;100142.25;;;2.28;53.26
9423;BME280;65863;49.506;10.400;2023-02-07T11:56:29;100091.06;;;2.20;53.36
9423;BME280;65863;49.506;10.400;2023-02-07T11:59:18;100130.50;;;1.85;51.40
9423;BME280;65863;49.506;10.400;2023-02-07T12:02:16;100095.13;;;2.28;51.88
9423;BME280;65863;49.506;10.400;2023-02-07T12:05:16;100103.47;;;2.76;51.13
9423;BME280;65863;49.506;10.400;2023-02-07T12:08:05;100044.19;;;2.48;50.94
9423;BME280;65863;49.506;10.400;2023-02-07T12:11:20;100109.63;;;2.93;51.31
9423;BME280;65863;49.506;10.400;2023-02-07T12:14:18;100095.22;;;2.50;50.95
9423;BME280;65863;49.506;10.400;2023-02-07T12:17:11;100104.31;;;2.51;50.96
9423;BME280;65863;49.506;10.400;2023-02-07T12:20:02;100127.22;;;2.77;51.33
9423;BME280;65863;49.506;10.400;2023-02-07T12:22:55;100129.66;;;2.75;50.76
9423;BME280;65863;49.506;10.400;2023-02-07T12:25:47;100106.53;;;2.91;50.72
9423;BME280;65863;49.506;10.400;2023-02-07T12:29:05;100135.72;;;2.96;50.05
9423;BME280;65863;49.506;10.400;2023-02-07T12:34:49;100116.88;;;2.04;51.03
9423;BME280;65863;49.506;10.400;2023-02-07T12:37:51;100014.09;;;1.63;51.60
9423;BME280;65863;49.506;10.400;2023-02-07T12:40:44;100130.59;;;2.46;52.34
9423;BME280;65863;49.506;10.400;2023-02-07T12:43:34;100094.38;;;2.15;52.14
9423;BME280;65863;49.506;10.400;2023-02-07T12:49:43;100124.19;;;2.36;52.05
9423;BME280;65863;49.506;10.400;2023-02-07T12:55:40;100082.75;;;1.68;51.17
9423;BME280;65863;49.506;10.400;2023-02-07T12:58:56;100125.53;;;1.93;51.65
9423;BME280;65863;49.506;10.400;2023-02-07T13:13:50;99958.09;;;0.91;52.38
9423;BME280;65863;49.506;10.400;2023-02-07T13:22:39;100102.03;;;1.98;52.53
9423;BME280;65863;49.506;10.400;2023-02-07T13:25:29;100004.31;;;1.46;52.87
9423;BME280;65863;49.506;10.400;2023-02-07T13:28:30;99989.13;;;1.37;52.74
9423;BME280;65863;49.506;10.400;2023-02-07T13:31:21;99984.72;;;1.40;53.00
9423;BME280;65863;49.506;10.400;2023-02-07T13:34:14;100103.16;;;2.13;53.23
9423;BME280;65863;49.506;10.400;2023-02-07T13:36:59;100090.97;;;1.98;53.41
9423;BME280;65863;49.506;10.400;2023-02-07T13:42:42;100069.22;;;2.09;53.53
9423;BME280;65863;49.506;10.400;2023-02-07T13:45:52;100122.44;;;2.30;53.26
9423;BME280;65863;49.506;10.400;2023-02-07T13:48:45;100109.88;;;2.25;52.77
9423;BME280;65863;49.506;10.400;2023-02-07T13:54:41;100006.88;;;1.79;52.85
9423;BME280;65863;49.506;10.400;2023-02-07T14:01:00;100111.09;;;2.50;52.10
9423;BME280;65863;49.506;10.400;2023-02-07T14:04:10;100106.75;;;2.49;52.11
9423;BME280;65863;49.506;10.400;2023-02-07T14:06:59;100121.91;;;2.70;51.73
9423;BME280;65863;49.506;10.400;2023-02-07T14:09:46;100104.78;;;2.84;51.59
9423;BME280;65863;49.506;10.400;2023-02-07T14:12:34;99946.84;;;1.50;51.04
9423;BME280;65863;49.506;10.400;2023-02-07T14:21:30;100051.31;;;2.49;50.45
9423;BME280;65863;49.506;10.400;2023-02-07T14:24:17;100115.41;;;2.64;50.62
9423;BME280;65863;49.506;10.400;2023-02-07T14:27:03;100102.72;;;2.75;50.05
9423;BME280;65863;49.506;10.400;2023-02-07T14:30:08;100071.69;;;2.55;49.97
9423;BME280;65863;49.506;10.400;2023-02-07T14:33:28;100101.16;;;2.74;50.14
9423;BME280;65863;49.506;10.400;2023-02-07T14:39:25;99983.84;;;1.82;51.00
9423;BME280;65863;49.506;10.400;2023-02-07T14:42:17;100098.84;;;2.60;51.96
9423;BME280;65863;49.506;10.400;2023-02-07T14:45:05;100100.72;;;2.63;52.00
9423;BME280;65863;49.506;10.400;2023-02-07T14:47:50;100110.94;;;2.66;52.11
9423;BME280;65863;49.506;10.400;2023-02-07T14:50:34;100056.53;;;2.34;52.20
9423;BME280;65863;49.506;10.400;2023-02-07T14:53:20;100018.16;;;2.10;51.58
9423;BME280;65863;49.506;10.400;2023-02-07T14:56:06;99997.47;;;1.76;51.48
9423;BME280;65863;49.506;10.400;2023-02-07T14:58:57;100040.78;;;2.44;51.20
9423;BME280;65863;49.506;10.400;2023-02-07T15:01:42;100056.19;;;2.45;51.70
9423;BME280;65863;49.506;10.400;2023-02-07T15:04:26;100085.59;;;2.42;51.70
9423;BME280;65863;49.506;10.400;2023-02-07T15:07:11;100033.75;;;2.17;51.69
9423;BME280;65863;49.506;10.400;2023-02-07T15:09:55;100094.59;;;2.20;51.73
9423;BME280;65863;49.506;10.400;2023-02-07T15:12:40;100045.09;;;1.71;52.21
9423;BME280;65863;49.506;10.400;2023-02-07T15:15:34;100092.38;;;2.02;52.02
9423;BME280;65863;49.506;10.400;2023-02-07T15:18:27;100072.25;;;1.89;52.37
9423;BME280;65863;49.506;10.400;2023-02-07T15:21:16;100056.81;;;1.62;52.59
9423;BME280;65863;49.506;10.400;2023-02-07T15:24:04;100066.91;;;1.56;52.33
9423;BME280;65863;49.506;10.400;2023-02-07T15:26:55;100001.94;;;1.06;52.09
9423;BME280;65863;49.506;10.400;2023-02-07T15:29:41;100096.69;;;1.52;52.46
9423;BME280;65863;49.506;10.400;2023-02-07T15:32:31;100108.75;;;1.45;52.83
9423;BME280;65863;49.506;10.400;2023-02-07T15:35:20;100089.19;;;1.23;52.86
9423;BME280;65863;49.506;10.400;2023-02-07T15:38:21;100094.94;;;1.16;52.72
9423;BME280;65863;49.506;10.400;2023-02-07T15:41:05;100055.81;;;0.72;53.45
9423;BME280;65863;49.506;10.400;2023-02-07T15:44:02;100092.94;;;0.87;53.96
9423;BME280;65863;49.506;10.400;2023-02-07T15:46:59;100101.25;;;0.87;54.28
9423;BME280;65863;49.506;10.400;2023-02-07T15:49:43;100094.28;;;0.66;54.83
9423;BME280;65863;49.506;10.400;2023-02-07T15:52:34;100097.94;;;0.46;54.98
9423;BME280;65863;49.506;10.400;2023-02-07T15:58:37;100103.03;;;0.31;56.16
9423;BME280;65863;49.506;10.400;2023-02-07T16:01:24;100068.50;;;0.07;56.36
9423;BME280;65863;49.506;10.400;2023-02-07T16:04:09;100069.69;;;0.06;56.87
9423;BME280;65863;49.506;10.400;2023-02-07T16:07:03;100095.50;;;0.15;57.17
9423;BME280;65863;49.506;10.400;2023-02-07T16:09:48;99981.34;;;-0.80;57.13
9423;BME280;65863;49.506;10.400;2023-02-07T16:12:43;100109.56;;;-0.12;57.67
9423;BME280;65863;49.506;10.400;2023-02-07T16:15:36;100108.19;;;-0.04;58.16
9423;BME280;65863;49.506;10.400;2023-02-07T16:18:43;100114.47;;;-0.03;58.10
9423;BME280;65863;49.506;10.400;2023-02-07T16:21:29;100067.44;;;-0.53;58.09
9423;BME280;65863;49.506;10.400;2023-02-07T16:24:18;100097.78;;;-0.32;58.63
9423;BME280;65863;49.506;10.400;2023-02-07T16:27:04;100123.53;;;-0.19;58.98
9423;BME280;65863;49.506;10.400;2023-02-07T16:29:49;100100.56;;;-0.32;59.00